sensor_id;sensor_type;location;lat;lon;timestamp;P1;durP1;ratioP1;P2;durP2;ratioP2
37787;SDS011;23627;53.302;-6.362;2024-03-02T00:00:38;6.43;;;2.25;;
37787;SDS011;23627;53.302;-6.362;2024-03-02T00:03:05;4.07;;;2.03;;
37787;SDS011;23627;53.302;-6.362;2024-03-02T00:05:32;6.30;;;2.30;;
37787;SDS011;23627;53.302;-6.362;2024-03-02T00:07:58;5.25;;;1.65;;
37787;SDS011;23627;53.302;-6.362;2024-03-02T00:10:25;6.72;;;1.83;;
37787;SDS011;23627;53.302;-6.362;2024-03-02T00:13:02;3.28;;;1.38;;
37787;SDS011;23627;53.302;-6.362;2024-03-02T00:18:14;4.55;;;1.67;;
37787;SDS011;23627;53.302;-6.362;2024-03-02T00:20:44;3.60;;;1.40;;
37787;SDS011;23627;53.302;-6.362;2024-03-02T00:23:12;3.25;;;1.52;;
37787;SDS011;23627;53.302;-6.362;2024-03-02T00:25:41;5.45;;;1.58;;
37787;SDS011;23627;53.302;-6.362;2024-03-02T00:28:13;3.85;;;1.70;;
37787;SDS011;23627;53.302;-6.362;2024-03-02T00:33:09;4.25;;;1.30;;
37787;SDS011;23627;53.302;-6.362;2024-03-02T00:35:35;3.78;;;1.40;;
37787;SDS011;23627;53.302;-6.362;2024-03-02T00:38:05;4.00;;;1.25;;
37787;SDS011;23627;53.302;-6.362;2024-03-02T00:40:31;3.03;;;1.20;;
37787;SDS011;23627;53.302;-6.362;2024-03-02T00:42:57;4.38;;;1.70;;
37787;SDS011;23627;53.302;-6.362;2024-03-02T00:45:24;3.33;;;1.10;;
37787;SDS011;23627;53.302;-6.362;2024-03-02T00:47:51;4.07;;;1.20;;
37787;SDS011;23627;53.302;-6.362;2024-03-02T00:50:17;4.20;;;1.60;;
37787;SDS011;23627;53.302;-6.362;2024-03-02T00:52:43;4.93;;;1.30;;
37787;SDS011;23627;53.302;-6.362;2024-03-02T00:55:09;3.90;;;1.05;;
37787;SDS011;23627;53.302;-6.362;2024-03-02T00:57:35;4.60;;;1.00;;
37787;SDS011;23627;53.302;-6.362;2024-03-02T01:00:01;2.55;;;0.90;;
37787;SDS011;23627;53.302;-6.362;2024-03-02T01:02:28;4.10;;;0.90;;
37787;SDS011;23627;53.302;-6.362;2024-03-02T01:04:54;6.43;;;1.17;;
37787;SDS011;23627;53.302;-6.362;2024-03-02T01:07:20;3.65;;;1.20;;
37787;SDS011;23627;53.302;-6.362;2024-03-02T01:09:45;3.72;;;1.20;;
37787;SDS011;23627;53.302;-6.362;2024-03-02T01:12:11;4.95;;;1.00;;
37787;SDS011;23627;53.302;-6.362;2024-03-02T01:14:37;3.58;;;1.17;;
37787;SDS011;23627;53.302;-6.362;2024-03-02T01:17:03;3.40;;;1.20;;
37787;SDS011;23627;53.302;-6.362;2024-03-02T01:19:29;3.40;;;1.27;;
37787;SDS011;23627;53.302;-6.362;2024-03-02T01:21:55;4.03;;;1.13;;
37787;SDS011;23627;53.302;-6.362;2024-03-02T01:24:21;4.78;;;1.20;;
37787;SDS011;23627;53.302;-6.362;2024-03-02T01:26:47;3.58;;;1.00;;
37787;SDS011;23627;53.302;-6.362;2024-03-02T01:29:13;2.58;;;1.02;;
37787;SDS011;23627;53.302;-6.362;2024-03-02T01:31:38;2.75;;;1.20;;
37787;SDS011;23627;53.302;-6.362;2024-03-02T01:34:08;4.15;;;1.20;;
37787;SDS011;23627;53.302;-6.362;2024-03-02T01:36:33;4.28;;;1.20;;
37787;SDS011;23627;53.302;-6.362;2024-03-02T01:38:59;2.80;;;1.08;;
37787;SDS011;23627;53.302;-6.362;2024-03-02T01:41:26;3.83;;;1.30;;
37787;SDS011;23627;53.302;-6.362;2024-03-02T01:43:51;3.00;;;1.13;;
37787;SDS011;23627;53.302;-6.362;2024-03-02T01:46:17;4.50;;;0.95;;
37787;SDS011;23627;53.302;-6.362;2024-03-02T01:48:43;4.75;;;1.58;;
37787;SDS011;23627;53.302;-6.362;2024-03-02T01:51:08;3.08;;;1.00;;
37787;SDS011;23627;53.302;-6.362;2024-03-02T01:53:35;3.25;;;1.08;;
37787;SDS011;23627;53.302;-6.362;2024-03-02T01:56:01;3.78;;;1.30;;
37787;SDS011;23627;53.302;-6.362;2024-03-02T01:58:27;3.40;;;0.90;;
37787;SDS011;23627;53.302;-6.362;2024-03-02T02:00:53;5.18;;;1.10;;
37787;SDS011;23627;53.302;-6.362;2024-03-02T02:03:19;5.43;;;1.50;;
37787;SDS011;23627;53.302;-6.362;2024-03-02T02:05:45;3.20;;;1.10;;
37787;SDS011;23627;53.302;-6.362;2024-03-02T02:08:12;2.63;;;1.00;;
37787;SDS011;23627;53.302;-6.362;2024-03-02T02:10:38;2.55;;;0.90;;
37787;SDS011;23627;53.302;-6.362;2024-03-02T02:13:04;3.30;;;0.80;;
37787;SDS011;23627;53.302;-6.362;2024-03-02T02:15:30;3.95;;;1.20;;
37787;SDS011;23627;53.302;-6.362;2024-03-02T02:17:56;2.83;;;1.00;;
37787;SDS011;23627;53.302;-6.362;2024-03-02T02:20:23;3.45;;;1.15;;
37787;SDS011;23627;53.302;-6.362;2024-03-02T02:25:23;4.32;;;1.00;;
37787;SDS011;23627;53.302;-6.362;2024-03-02T02:27:49;4.13;;;1.05;;
37787;SDS011;23627;53.302;-6.362;2024-03-02T02:30:19;3.00;;;1.00;;
37787;SDS011;23627;53.302;-6.362;2024-03-02T02:32:45;3.83;;;1.10;;
37787;SDS011;23627;53.302;-6.362;2024-03-02T02:35:11;4.03;;;1.08;;
37787;SDS011;23627;53.302;-6.362;2024-03-02T02:37:37;5.05;;;1.10;;
37787;SDS011;23627;53.302;-6.362;2024-03-02T02:40:04;4.35;;;1.17;;
37787;SDS011;23627;53.302;-6.362;2024-03-02T02:42:30;4.45;;;1.00;;
37787;SDS011;23627;53.302;-6.362;2024-03-02T02:44:56;5.03;;;1.10;;
37787;SDS011;23627;53.302;-6.362;2024-03-02T02:47:22;4.38;;;1.10;;
37787;SDS011;23627;53.302;-6.362;2024-03-02T02:49:47;2.35;;;0.77;;
37787;SDS011;23627;53.302;-6.362;2024-03-02T02:52:13;3.83;;;0.90;;
37787;SDS011;23627;53.302;-6.362;2024-03-02T02:54:39;3.22;;;1.13;;
37787;SDS011;23627;53.302;-6.362;2024-03-02T02:57:07;3.70;;;1.05;;
37787;SDS011;23627;53.302;-6.362;2024-03-02T02:59:35;5.57;;;1.23;;
37787;SDS011;23627;53.302;-6.362;2024-03-02T03:02:01;5.63;;;1.15;;
37787;SDS011;23627;53.302;-6.362;2024-03-02T03:04:27;5.28;;;1.00;;
37787;SDS011;23627;53.302;-6.362;2024-03-02T03:06:53;4.28;;;1.00;;
37787;SDS011;23627;53.302;-6.362;2024-03-02T03:09:19;5.40;;;0.90;;
37787;SDS011;23627;53.302;-6.362;2024-03-02T03:11:44;2.67;;;0.90;;
37787;SDS011;23627;53.302;-6.362;2024-03-02T03:14:10;5.05;;;0.90;;
37787;SDS011;23627;53.302;-6.362;2024-03-02T03:16:36;4.00;;;0.90;;
37787;SDS011;23627;53.302;-6.362;2024-03-02T03:19:02;4.32;;;1.00;;
37787;SDS011;23627;53.302;-6.362;2024-03-02T03:21:28;3.45;;;1.10;;
37787;SDS011;23627;53.302;-6.362;2024-03-02T03:23:56;4.18;;;0.90;;
37787;SDS011;23627;53.302;-6.362;2024-03-02T03:26:22;3.60;;;0.90;;
37787;SDS011;23627;53.302;-6.362;2024-03-02T03:28:48;4.97;;;0.90;;
37787;SDS011;23627;53.302;-6.362;2024-03-02T03:31:13;6.60;;;1.08;;
37787;SDS011;23627;53.302;-6.362;2024-03-02T03:33:39;5.25;;;1.30;;
37787;SDS011;23627;53.302;-6.362;2024-03-02T03:36:05;3.60;;;0.90;;
37787;SDS011;23627;53.302;-6.362;2024-03-02T03:38:31;6.28;;;1.00;;
37787;SDS011;23627;53.302;-6.362;2024-03-02T03:40:56;5.78;;;1.00;;
37787;SDS011;23627;53.302;-6.362;2024-03-02T03:43:28;6.20;;;0.95;;
37787;SDS011;23627;53.302;-6.362;2024-03-02T03:45:54;4.85;;;0.93;;
37787;SDS011;23627;53.302;-6.362;2024-03-02T03:48:20;5.82;;;1.15;;
37787;SDS011;23627;53.302;-6.362;2024-03-02T03:50:45;3.63;;;1.00;;
37787;SDS011;23627;53.302;-6.362;2024-03-02T03:53:11;4.03;;;0.90;;
37787;SDS011;23627;53.302;-6.362;2024-03-02T03:55:37;2.97;;;0.75;;
37787;SDS011;23627;53.302;-6.362;2024-03-02T03:58:03;4.60;;;0.98;;
37787;SDS011;23627;53.302;-6.362;2024-03-02T04:00:28;5.30;;;0.95;;
37787;SDS011;23627;53.302;-6.362;2024-03-02T04:02:54;3.85;;;0.90;;
37787;SDS011;23627;53.302;-6.362;2024-03-02T04:05:20;4.68;;;0.88;;
37787;SDS011;23627;53.302;-6.362;2024-03-02T04:07:46;4.47;;;0.80;;
37787;SDS011;23627;53.302;-6.362;2024-03-02T04:10:11;4.72;;;1.10;;
37787;SDS011;23627;53.302;-6.362;2024-03-02T04:12:37;6.20;;;1.20;;
37787;SDS011;23627;53.302;-6.362;2024-03-02T04:15:04;2.58;;;0.90;;
37787;SDS011;23627;53.302;-6.362;2024-03-02T04:17:31;5.78;;;1.00;;
37787;SDS011;23627;53.302;-6.362;2024-03-02T04:19:58;4.75;;;1.00;;
37787;SDS011;23627;53.302;-6.362;2024-03-02T04:22:25;4.13;;;0.80;;
37787;SDS011;23627;53.302;-6.362;2024-03-02T04:24:51;2.80;;;0.80;;
37787;SDS011;23627;53.302;-6.362;2024-03-02T04:27:17;4.80;;;0.90;;
37787;SDS011;23627;53.302;-6.362;2024-03-02T04:29:43;2.85;;;0.85;;
37787;SDS011;23627;53.302;-6.362;2024-03-02T04:32:08;6.03;;;0.98;;
37787;SDS011;23627;53.302;-6.362;2024-03-02T04:34:34;3.53;;;0.70;;
37787;SDS011;23627;53.302;-6.362;2024-03-02T04:37:00;6.28;;;1.17;;
37787;SDS011;23627;53.302;-6.362;2024-03-02T04:39:25;3.55;;;1.17;;
37787;SDS011;23627;53.302;-6.362;2024-03-02T04:41:54;5.82;;;0.85;;
37787;SDS011;23627;53.302;-6.362;2024-03-02T04:44:20;3.50;;;0.90;;
37787;SDS011;23627;53.302;-6.362;2024-03-02T04:46:45;6.03;;;1.00;;
37787;SDS011;23627;53.302;-6.362;2024-03-02T04:49:11;7.28;;;1.73;;
37787;SDS011;23627;53.302;-6.362;2024-03-02T04:51:37;5.28;;;0.88;;
37787;SDS011;23627;53.302;-6.362;2024-03-02T04:54:05;4.00;;;0.93;;
37787;SDS011;23627;53.302;-6.362;2024-03-02T04:56:31;3.45;;;0.90;;
37787;SDS011;23627;53.302;-6.362;2024-03-02T04:58:56;8.20;;;0.85;;
37787;SDS011;23627;53.302;-6.362;2024-03-02T05:01:22;3.90;;;0.90;;
37787;SDS011;23627;53.302;-6.362;2024-03-02T05:03:48;6.25;;;1.05;;
37787;SDS011;23627;53.302;-6.362;2024-03-02T05:06:17;5.00;;;0.95;;
37787;SDS011;23627;53.302;-6.362;2024-03-02T05:08:43;7.80;;;1.10;;
37787;SDS011;23627;53.302;-6.362;2024-03-02T05:11:09;2.88;;;0.90;;
37787;SDS011;23627;53.302;-6.362;2024-03-02T05:13:54;2.85;;;0.90;;
37787;SDS011;23627;53.302;-6.362;2024-03-02T05:16:19;5.22;;;1.50;;
37787;SDS011;23627;53.302;-6.362;2024-03-02T05:18:45;5.70;;;0.90;;
37787;SDS011;23627;53.302;-6.362;2024-03-02T05:21:11;5.53;;;0.88;;
37787;SDS011;23627;53.302;-6.362;2024-03-02T05:23:36;5.22;;;1.30;;
37787;SDS011;23627;53.302;-6.362;2024-03-02T05:26:02;5.57;;;0.80;;
37787;SDS011;23627;53.302;-6.362;2024-03-02T05:28:28;6.13;;;0.85;;
37787;SDS011;23627;53.302;-6.362;2024-03-02T05:30:54;4.38;;;0.80;;
37787;SDS011;23627;53.302;-6.362;2024-03-02T05:33:19;4.88;;;0.60;;
37787;SDS011;23627;53.302;-6.362;2024-03-02T05:35:47;4.55;;;0.80;;
37787;SDS011;23627;53.302;-6.362;2024-03-02T05:38:15;7.00;;;1.10;;
37787;SDS011;23627;53.302;-6.362;2024-03-02T05:40:41;4.30;;;1.13;;
37787;SDS011;23627;53.302;-6.362;2024-03-02T05:43:07;2.45;;;0.70;;
37787;SDS011;23627;53.302;-6.362;2024-03-02T05:45:33;4.90;;;0.90;;
37787;SDS011;23627;53.302;-6.362;2024-03-02T05:47:58;4.93;;;0.75;;
37787;SDS011;23627;53.302;-6.362;2024-03-02T05:50:24;7.78;;;0.80;;
37787;SDS011;23627;53.302;-6.362;2024-03-02T05:52:50;5.75;;;1.05;;
37787;SDS011;23627;53.302;-6.362;2024-03-02T05:55:16;5.63;;;0.95;;
37787;SDS011;23627;53.302;-6.362;2024-03-02T05:57:42;4.93;;;1.02;;
37787;SDS011;23627;53.302;-6.362;2024-03-02T06:00:28;7.10;;;0.80;;
37787;SDS011;23627;53.302;-6.362;2024-03-02T06:02:55;3.00;;;0.90;;
37787;SDS011;23627;53.302;-6.362;2024-03-02T06:05:21;4.25;;;1.00;;
37787;SDS011;23627;53.302;-6.362;2024-03-02T06:07:47;5.30;;;1.08;;
37787;SDS011;23627;53.302;-6.362;2024-03-02T06:10:13;4.53;;;0.90;;
37787;SDS011;23627;53.302;-6.362;2024-03-02T06:12:39;2.72;;;0.80;;
37787;SDS011;23627;53.302;-6.362;2024-03-02T06:15:05;3.90;;;0.90;;
37787;SDS011;23627;53.302;-6.362;2024-03-02T06:17:31;4.40;;;0.90;;
37787;SDS011;23627;53.302;-6.362;2024-03-02T06:19:57;4.88;;;0.93;;
37787;SDS011;23627;53.302;-6.362;2024-03-02T06:22:23;3.00;;;0.82;;
37787;SDS011;23627;53.302;-6.362;2024-03-02T06:24:50;4.57;;;1.20;;
37787;SDS011;23627;53.302;-6.362;2024-03-02T06:27:16;4.10;;;0.90;;
37787;SDS011;23627;53.302;-6.362;2024-03-02T06:29:42;5.18;;;0.90;;
37787;SDS011;23627;53.302;-6.362;2024-03-02T06:32:08;4.78;;;0.90;;
37787;SDS011;23627;53.302;-6.362;2024-03-02T06:34:33;4.45;;;0.70;;
37787;SDS011;23627;53.302;-6.362;2024-03-02T06:36:59;2.28;;;0.70;;
37787;SDS011;23627;53.302;-6.362;2024-03-02T06:39:25;3.70;;;0.80;;
37787;SDS011;23627;53.302;-6.362;2024-03-02T06:41:51;4.18;;;1.00;;
37787;SDS011;23627;53.302;-6.362;2024-03-02T06:44:17;2.67;;;0.77;;
37787;SDS011;23627;53.302;-6.362;2024-03-02T06:46:43;4.93;;;0.77;;
37787;SDS011;23627;53.302;-6.362;2024-03-02T06:49:09;8.85;;;0.70;;
37787;SDS011;23627;53.302;-6.362;2024-03-02T06:51:37;3.88;;;0.60;;
37787;SDS011;23627;53.302;-6.362;2024-03-02T06:54:03;4.60;;;0.90;;
37787;SDS011;23627;53.302;-6.362;2024-03-02T06:56:29;4.72;;;0.77;;
37787;SDS011;23627;53.302;-6.362;2024-03-02T06:58:55;4.20;;;0.70;;
37787;SDS011;23627;53.302;-6.362;2024-03-02T07:01:21;4.28;;;0.90;;
37787;SDS011;23627;53.302;-6.362;2024-03-02T07:03:51;4.13;;;0.90;;
37787;SDS011;23627;53.302;-6.362;2024-03-02T07:06:17;3.05;;;0.80;;
37787;SDS011;23627;53.302;-6.362;2024-03-02T07:08:43;3.83;;;0.68;;
37787;SDS011;23627;53.302;-6.362;2024-03-02T07:11:09;4.00;;;0.80;;
37787;SDS011;23627;53.302;-6.362;2024-03-02T07:13:34;2.78;;;0.80;;
37787;SDS011;23627;53.302;-6.362;2024-03-02T07:16:00;4.45;;;0.90;;
37787;SDS011;23627;53.302;-6.362;2024-03-02T07:18:32;2.78;;;0.90;;
37787;SDS011;23627;53.302;-6.362;2024-03-02T07:21:07;3.95;;;0.80;;
37787;SDS011;23627;53.302;-6.362;2024-03-02T07:23:32;3.95;;;1.10;;
37787;SDS011;23627;53.302;-6.362;2024-03-02T07:25:59;4.68;;;0.98;;
37787;SDS011;23627;53.302;-6.362;2024-03-02T07:28:26;4.30;;;0.82;;
37787;SDS011;23627;53.302;-6.362;2024-03-02T07:30:59;4.22;;;0.80;;
37787;SDS011;23627;53.302;-6.362;2024-03-02T07:33:29;2.85;;;0.70;;
37787;SDS011;23627;53.302;-6.362;2024-03-02T07:35:55;3.55;;;0.90;;
37787;SDS011;23627;53.302;-6.362;2024-03-02T07:38:22;5.30;;;1.00;;
37787;SDS011;23627;53.302;-6.362;2024-03-02T07:40:48;4.15;;;0.90;;
37787;SDS011;23627;53.302;-6.362;2024-03-02T07:43:21;5.53;;;0.90;;
37787;SDS011;23627;53.302;-6.362;2024-03-02T07:45:47;4.13;;;0.50;;
37787;SDS011;23627;53.302;-6.362;2024-03-02T07:48:13;2.63;;;0.70;;
37787;SDS011;23627;53.302;-6.362;2024-03-02T07:50:40;3.85;;;0.90;;
37787;SDS011;23627;53.302;-6.362;2024-03-02T07:53:06;4.18;;;0.80;;
37787;SDS011;23627;53.302;-6.362;2024-03-02T07:55:33;2.80;;;0.88;;
37787;SDS011;23627;53.302;-6.362;2024-03-02T07:58:00;3.20;;;0.63;;
37787;SDS011;23627;53.302;-6.362;2024-03-02T08:00:26;3.17;;;0.80;;
37787;SDS011;23627;53.302;-6.362;2024-03-02T08:02:53;2.72;;;0.75;;
37787;SDS011;23627;53.302;-6.362;2024-03-02T08:05:19;3.42;;;0.80;;
37787;SDS011;23627;53.302;-6.362;2024-03-02T08:07:45;3.25;;;0.70;;
37787;SDS011;23627;53.302;-6.362;2024-03-02T08:10:12;3.20;;;0.60;;
37787;SDS011;23627;53.302;-6.362;2024-03-02T08:12:38;1.73;;;0.70;;
37787;SDS011;23627;53.302;-6.362;2024-03-02T08:15:04;3.75;;;0.80;;
37787;SDS011;23627;53.302;-6.362;2024-03-02T08:17:31;3.42;;;0.70;;
37787;SDS011;23627;53.302;-6.362;2024-03-02T08:19:57;5.50;;;0.82;;
37787;SDS011;23627;53.302;-6.362;2024-03-02T08:22:23;2.63;;;0.68;;
37787;SDS011;23627;53.302;-6.362;2024-03-02T08:24:50;2.67;;;0.60;;
37787;SDS011;23627;53.302;-6.362;2024-03-02T08:27:17;5.55;;;0.63;;
37787;SDS011;23627;53.302;-6.362;2024-03-02T08:29:43;1.80;;;0.60;;
37787;SDS011;23627;53.302;-6.362;2024-03-02T08:32:08;3.35;;;0.70;;
37787;SDS011;23627;53.302;-6.362;2024-03-02T08:34:34;2.13;;;0.40;;
37787;SDS011;23627;53.302;-6.362;2024-03-02T08:37:01;1.88;;;0.52;;
37787;SDS011;23627;53.302;-6.362;2024-03-02T08:39:27;2.88;;;0.55;;
37787;SDS011;23627;53.302;-6.362;2024-03-02T08:41:53;1.92;;;0.50;;
37787;SDS011;23627;53.302;-6.362;2024-03-02T08:44:19;2.40;;;0.43;;
37787;SDS011;23627;53.302;-6.362;2024-03-02T08:46:45;3.83;;;0.50;;
37787;SDS011;23627;53.302;-6.362;2024-03-02T08:49:14;4.07;;;0.60;;
37787;SDS011;23627;53.302;-6.362;2024-03-02T08:51:40;2.33;;;0.50;;
37787;SDS011;23627;53.302;-6.362;2024-03-02T08:54:05;2.30;;;0.40;;
37787;SDS011;23627;53.302;-6.362;2024-03-02T08:56:31;3.42;;;0.55;;
37787;SDS011;23627;53.302;-6.362;2024-03-02T08:58:57;3.38;;;0.57;;
37787;SDS011;23627;53.302;-6.362;2024-03-02T09:01:23;2.00;;;0.50;;
37787;SDS011;23627;53.302;-6.362;2024-03-02T09:03:49;1.98;;;0.43;;
37787;SDS011;23627;53.302;-6.362;2024-03-02T09:06:15;4.20;;;0.70;;
37787;SDS011;23627;53.302;-6.362;2024-03-02T09:08:45;1.55;;;0.40;;
37787;SDS011;23627;53.302;-6.362;2024-03-02T09:11:16;2.53;;;0.50;;
37787;SDS011;23627;53.302;-6.362;2024-03-02T09:13:42;2.83;;;0.50;;
37787;SDS011;23627;53.302;-6.362;2024-03-02T09:16:09;3.85;;;0.60;;
37787;SDS011;23627;53.302;-6.362;2024-03-02T09:18:36;1.90;;;0.50;;
37787;SDS011;23627;53.302;-6.362;2024-03-02T09:21:02;1.92;;;0.50;;
37787;SDS011;23627;53.302;-6.362;2024-03-02T09:23:28;3.05;;;0.70;;
37787;SDS011;23627;53.302;-6.362;2024-03-02T09:25:53;1.60;;;0.70;;
37787;SDS011;23627;53.302;-6.362;2024-03-02T09:28:19;2.42;;;0.47;;
37787;SDS011;23627;53.302;-6.362;2024-03-02T09:30:45;3.53;;;0.70;;
37787;SDS011;23627;53.302;-6.362;2024-03-02T09:33:11;2.53;;;0.70;;
37787;SDS011;23627;53.302;-6.362;2024-03-02T09:35:36;2.05;;;0.50;;
37787;SDS011;23627;53.302;-6.362;2024-03-02T09:38:02;2.90;;;0.70;;
37787;SDS011;23627;53.302;-6.362;2024-03-02T09:40:28;4.10;;;0.80;;
37787;SDS011;23627;53.302;-6.362;2024-03-02T09:42:54;3.58;;;0.60;;
37787;SDS011;23627;53.302;-6.362;2024-03-02T09:45:22;2.78;;;0.77;;
37787;SDS011;23627;53.302;-6.362;2024-03-02T09:47:49;1.88;;;0.60;;
37787;SDS011;23627;53.302;-6.362;2024-03-02T09:50:16;2.13;;;0.50;;
37787;SDS011;23627;53.302;-6.362;2024-03-02T09:52:42;2.67;;;0.68;;
37787;SDS011;23627;53.302;-6.362;2024-03-02T09:55:08;2.25;;;0.45;;
37787;SDS011;23627;53.302;-6.362;2024-03-02T09:57:34;2.70;;;0.75;;
37787;SDS011;23627;53.302;-6.362;2024-03-02T10:00:00;2.47;;;0.52;;
37787;SDS011;23627;53.302;-6.362;2024-03-02T10:02:26;3.83;;;0.70;;
37787;SDS011;23627;53.302;-6.362;2024-03-02T10:04:52;2.83;;;0.60;;
37787;SDS011;23627;53.302;-6.362;2024-03-02T10:10:40;2.90;;;0.47;;
37787;SDS011;23627;53.302;-6.362;2024-03-02T10:13:10;2.67;;;0.60;;
37787;SDS011;23627;53.302;-6.362;2024-03-02T10:15:37;2.80;;;0.50;;
37787;SDS011;23627;53.302;-6.362;2024-03-02T10:18:11;4.93;;;0.75;;
37787;SDS011;23627;53.302;-6.362;2024-03-02T10:20:38;2.78;;;0.60;;
37787;SDS011;23627;53.302;-6.362;2024-03-02T10:23:11;8.27;;;0.80;;
37787;SDS011;23627;53.302;-6.362;2024-03-02T10:25:38;3.72;;;0.77;;
37787;SDS011;23627;53.302;-6.362;2024-03-02T10:28:04;4.88;;;0.73;;
37787;SDS011;23627;53.302;-6.362;2024-03-02T10:30:31;3.25;;;0.50;;
37787;SDS011;23627;53.302;-6.362;2024-03-02T10:33:01;2.05;;;0.40;;
37787;SDS011;23627;53.302;-6.362;2024-03-02T10:35:27;3.58;;;0.70;;
37787;SDS011;23627;53.302;-6.362;2024-03-02T10:37:53;1.75;;;0.57;;
37787;SDS011;23627;53.302;-6.362;2024-03-02T10:40:23;1.73;;;0.30;;
37787;SDS011;23627;53.302;-6.362;2024-03-02T10:42:52;2.78;;;0.73;;
37787;SDS011;23627;53.302;-6.362;2024-03-02T10:45:19;1.48;;;0.50;;
37787;SDS011;23627;53.302;-6.362;2024-03-02T10:47:47;1.38;;;0.40;;
37787;SDS011;23627;53.302;-6.362;2024-03-02T10:50:14;1.67;;;0.60;;
37787;SDS011;23627;53.302;-6.362;2024-03-02T10:52:40;1.67;;;0.40;;
37787;SDS011;23627;53.302;-6.362;2024-03-02T10:55:06;2.05;;;0.50;;
37787;SDS011;23627;53.302;-6.362;2024-03-02T10:57:40;2.65;;;0.55;;
37787;SDS011;23627;53.302;-6.362;2024-03-02T11:00:21;3.65;;;0.52;;
37787;SDS011;23627;53.302;-6.362;2024-03-02T11:02:58;3.88;;;0.68;;
37787;SDS011;23627;53.302;-6.362;2024-03-02T11:05:36;1.45;;;0.40;;
37787;SDS011;23627;53.302;-6.362;2024-03-02T11:08:07;1.40;;;0.47;;
37787;SDS011;23627;53.302;-6.362;2024-03-02T11:10:39;2.53;;;0.50;;
37787;SDS011;23627;53.302;-6.362;2024-03-02T11:13:09;0.85;;;0.28;;
37787;SDS011;23627;53.302;-6.362;2024-03-02T11:15:36;1.00;;;0.30;;
37787;SDS011;23627;53.302;-6.362;2024-03-02T11:18:05;2.45;;;0.70;;
37787;SDS011;23627;53.302;-6.362;2024-03-02T11:20:35;1.70;;;0.35;;
37787;SDS011;23627;53.302;-6.362;2024-03-02T11:23:07;1.38;;;0.35;;
37787;SDS011;23627;53.302;-6.362;2024-03-02T11:25:34;3.08;;;0.75;;
37787;SDS011;23627;53.302;-6.362;2024-03-02T11:28:03;7.00;;;0.70;;
37787;SDS011;23627;53.302;-6.362;2024-03-02T11:33:03;2.50;;;0.52;;
37787;SDS011;23627;53.302;-6.362;2024-03-02T11:38:02;3.47;;;0.82;;
37787;SDS011;23627;53.302;-6.362;2024-03-02T11:40:29;3.60;;;0.52;;
37787;SDS011;23627;53.302;-6.362;2024-03-02T11:42:56;3.38;;;0.50;;
37787;SDS011;23627;53.302;-6.362;2024-03-02T11:45:22;1.80;;;0.30;;
37787;SDS011;23627;53.302;-6.362;2024-03-02T11:47:56;2.30;;;0.50;;
37787;SDS011;23627;53.302;-6.362;2024-03-02T11:52:55;2.53;;;0.50;;
37787;SDS011;23627;53.302;-6.362;2024-03-02T11:55:23;2.00;;;0.40;;
37787;SDS011;23627;53.302;-6.362;2024-03-02T11:57:54;1.80;;;0.30;;
37787;SDS011;23627;53.302;-6.362;2024-03-02T12:00:19;1.50;;;0.40;;
37787;SDS011;23627;53.302;-6.362;2024-03-02T12:02:46;2.60;;;0.40;;
37787;SDS011;23627;53.302;-6.362;2024-03-02T12:05:24;1.13;;;0.30;;
37787;SDS011;23627;53.302;-6.362;2024-03-02T12:07:55;1.27;;;0.38;;
37787;SDS011;23627;53.302;-6.362;2024-03-02T12:10:25;1.80;;;0.30;;
37787;SDS011;23627;53.302;-6.362;2024-03-02T12:15:25;1.70;;;0.40;;
37787;SDS011;23627;53.302;-6.362;2024-03-02T12:17:58;1.70;;;0.20;;
37787;SDS011;23627;53.302;-6.362;2024-03-02T12:20:25;1.40;;;0.40;;
37787;SDS011;23627;53.302;-6.362;2024-03-02T12:22:54;0.90;;;0.40;;
37787;SDS011;23627;53.302;-6.362;2024-03-02T12:25:22;1.83;;;0.50;;
37787;SDS011;23627;53.302;-6.362;2024-03-02T12:27:50;1.35;;;0.50;;
37787;SDS011;23627;53.302;-6.362;2024-03-02T12:30:18;1.10;;;0.40;;
37787;SDS011;23627;53.302;-6.362;2024-03-02T12:32:44;1.20;;;0.40;;
37787;SDS011;23627;53.302;-6.362;2024-03-02T12:35:10;1.27;;;0.40;;
37787;SDS011;23627;53.302;-6.362;2024-03-02T12:40:10;2.30;;;0.60;;
37787;SDS011;23627;53.302;-6.362;2024-03-02T12:42:37;1.15;;;0.30;;
37787;SDS011;23627;53.302;-6.362;2024-03-02T12:45:04;0.82;;;0.30;;
37787;SDS011;23627;53.302;-6.362;2024-03-02T12:47:30;1.55;;;0.43;;
37787;SDS011;23627;53.302;-6.362;2024-03-02T12:49:57;0.90;;;0.35;;
37787;SDS011;23627;53.302;-6.362;2024-03-02T12:52:24;1.00;;;0.40;;
37787;SDS011;23627;53.302;-6.362;2024-03-02T12:54:49;0.90;;;0.22;;
37787;SDS011;23627;53.302;-6.362;2024-03-02T12:57:19;0.70;;;0.40;;
37787;SDS011;23627;53.302;-6.362;2024-03-02T12:59:45;1.17;;;0.40;;
37787;SDS011;23627;53.302;-6.362;2024-03-02T13:02:17;1.33;;;0.40;;
37787;SDS011;23627;53.302;-6.362;2024-03-02T13:04:43;1.23;;;0.40;;
37787;SDS011;23627;53.302;-6.362;2024-03-02T13:07:09;0.77;;;0.35;;
37787;SDS011;23627;53.302;-6.362;2024-03-02T13:09:39;0.95;;;0.40;;
37787;SDS011;23627;53.302;-6.362;2024-03-02T13:12:05;1.40;;;0.20;;
37787;SDS011;23627;53.302;-6.362;2024-03-02T13:14:35;1.58;;;0.20;;
37787;SDS011;23627;53.302;-6.362;2024-03-02T13:17:01;0.60;;;0.30;;
37787;SDS011;23627;53.302;-6.362;2024-03-02T13:19:30;0.57;;;0.25;;
37787;SDS011;23627;53.302;-6.362;2024-03-02T13:21:56;1.00;;;0.30;;
37787;SDS011;23627;53.302;-6.362;2024-03-02T13:24:22;0.60;;;0.30;;
37787;SDS011;23627;53.302;-6.362;2024-03-02T13:26:50;0.60;;;0.38;;
37787;SDS011;23627;53.302;-6.362;2024-03-02T13:29:20;1.17;;;0.30;;
37787;SDS011;23627;53.302;-6.362;2024-03-02T13:31:46;1.15;;;0.30;;
37787;SDS011;23627;53.302;-6.362;2024-03-02T13:34:12;0.77;;;0.20;;
37787;SDS011;23627;53.302;-6.362;2024-03-02T13:36:41;0.90;;;0.35;;
37787;SDS011;23627;53.302;-6.362;2024-03-02T13:39:07;0.98;;;0.40;;
37787;SDS011;23627;53.302;-6.362;2024-03-02T13:41:35;1.13;;;0.32;;
37787;SDS011;23627;53.302;-6.362;2024-03-02T13:44:01;1.95;;;0.30;;
37787;SDS011;23627;53.302;-6.362;2024-03-02T13:46:28;2.28;;;0.85;;
37787;SDS011;23627;53.302;-6.362;2024-03-02T13:48:54;1.00;;;0.35;;
37787;SDS011;23627;53.302;-6.362;2024-03-02T13:51:20;1.98;;;0.50;;
37787;SDS011;23627;53.302;-6.362;2024-03-02T13:53:46;0.40;;;0.30;;
37787;SDS011;23627;53.302;-6.362;2024-03-02T13:56:12;1.35;;;0.40;;
37787;SDS011;23627;53.302;-6.362;2024-03-02T13:58:38;1.02;;;0.30;;
37787;SDS011;23627;53.302;-6.362;2024-03-02T14:01:04;0.90;;;0.40;;
37787;SDS011;23627;53.302;-6.362;2024-03-02T14:03:30;2.42;;;0.60;;
37787;SDS011;23627;53.302;-6.362;2024-03-02T14:05:56;0.82;;;0.50;;
37787;SDS011;23627;53.302;-6.362;2024-03-02T14:08:23;0.82;;;0.30;;
37787;SDS011;23627;53.302;-6.362;2024-03-02T14:10:49;1.33;;;0.40;;
37787;SDS011;23627;53.302;-6.362;2024-03-02T14:13:14;1.17;;;0.50;;
37787;SDS011;23627;53.302;-6.362;2024-03-02T14:15:41;0.95;;;0.52;;
37787;SDS011;23627;53.302;-6.362;2024-03-02T14:18:07;2.03;;;0.55;;
37787;SDS011;23627;53.302;-6.362;2024-03-02T14:20:36;1.63;;;0.70;;
37787;SDS011;23627;53.302;-6.362;2024-03-02T14:23:02;1.58;;;0.70;;
37787;SDS011;23627;53.302;-6.362;2024-03-02T14:25:29;1.48;;;0.70;;
37787;SDS011;23627;53.302;-6.362;2024-03-02T14:27:59;1.30;;;0.70;;
37787;SDS011;23627;53.302;-6.362;2024-03-02T14:30:25;2.83;;;0.90;;
37787;SDS011;23627;53.302;-6.362;2024-03-02T14:32:50;2.05;;;0.80;;
37787;SDS011;23627;53.302;-6.362;2024-03-02T14:35:16;2.60;;;0.85;;
37787;SDS011;23627;53.302;-6.362;2024-03-02T14:37:42;1.70;;;0.75;;
37787;SDS011;23627;53.302;-6.362;2024-03-02T14:40:08;1.83;;;0.70;;
37787;SDS011;23627;53.302;-6.362;2024-03-02T14:42:35;1.67;;;0.70;;
37787;SDS011;23627;53.302;-6.362;2024-03-02T14:45:02;1.35;;;0.50;;
37787;SDS011;23627;53.302;-6.362;2024-03-02T14:47:30;1.45;;;0.45;;
37787;SDS011;23627;53.302;-6.362;2024-03-02T14:49:57;1.55;;;0.60;;
37787;SDS011;23627;53.302;-6.362;2024-03-02T14:52:26;2.85;;;0.80;;
37787;SDS011;23627;53.302;-6.362;2024-03-02T14:54:52;2.30;;;0.75;;